Latest Weather Observations for Hopetoun North

IDW60801

Issued at 8:03 am WST Tuesday 28 April 2015 (issued every 30 minutes, with the page automatically refreshed every 10 minutes)

About weather observations | Map of weather stations | Latest weather observations for WA | Other Formats
Station Details ID: 009961 Name: HOPETOUN NORTH Lat: -33.93 Lon: 120.13 Height: 26.0 m
Data from the previous 72 hours. | See also: Recent months at Hopetoun North
Date/Time
WST
Temp
°C
App
Temp
°C
Dew
Point
Rel
Hum
%
Delta-T
°C
Wind Press
QNH
hPa
Press
MSL
hPa
Rain
since 9 am
mm
Dir
 
Spd
km/h
Gust
km/h
Spd
kts
Gust
kts
28/08:00am 11.2 7.2 8.1 81 1.5 NNE 19 24 10 13 1027.9 1027.8 0.0
28/07:30am 9.0 6.0 7.8 92 0.6 NNE 13 17 7 9 1027.9 1027.8 0.0
28/07:00am 6.9 4.1 6.8 99 0.0 NNE 11 13 6 7 1027.7 1027.6 0.0
28/06:30am 6.7 3.4 6.6 99 0.0 NNE 13 17 7 9 1027.6 1027.5 0.0
28/06:00am 6.4 3.5 6.3 99 0.0 NE 11 13 6 7 1027.4 1027.3 0.0
28/05:30am 6.2 2.8 6.1 99 0.0 NE 13 15 7 8 1027.1 1027.0 0.0
28/05:00am 6.8 3.6 6.7 99 0.0 NE 13 15 7 8 1027.1 1027.0 0.0
28/04:30am 7.0 3.8 6.7 98 0.1 NNE 13 15 7 8 1027.4 1027.3 0.0
28/04:00am 7.1 3.9 6.8 98 0.1 NNE 13 15 7 8 1027.4 1027.3 0.0
28/03:30am 6.8 3.6 6.7 99 0.0 NNE 13 17 7 9 1027.5 1027.4 0.0
28/03:00am 6.2 3.2 6.1 99 0.0 NE 11 11 6 6 1027.6 1027.5 0.0
28/02:30am 6.6 3.3 6.5 99 0.0 NE 13 15 7 8 1027.7 1027.6 0.0
28/02:00am 6.6 3.7 6.3 98 0.1 NE 11 13 6 7 1027.8 1027.7 0.0
28/01:30am 7.4 4.6 6.8 96 0.3 NE 11 13 6 7 1028.0 1027.9 0.0
28/01:00am 7.7 4.9 7.1 96 0.3 NE 11 13 6 7 1028.0 1027.9 0.0
28/12:30am 8.1 5.8 7.5 96 0.3 NNE 9 11 5 6 1028.2 1028.1 0.0
28/12:00am 8.9 6.4 8.1 95 0.4 NE 11 13 6 7 1028.1 1028.0 0.0
 
Date/Time
WST
Temp
°C
App
Temp
°C
Dew
Point
Rel
Hum
%
Delta-T
°C
Wind Press
QNH
hPa
Press
MSL
hPa
Rain
since 9 am
mm
Dir
 
Spd
km/h
Gust
km/h
Spd
kts
Gust
kts
27/11:30pm 9.6 7.3 9.0 96 0.3 NE 11 13 6 7 1028.3 1028.2 0.0
27/11:00pm 9.1 6.6 8.3 95 0.4 NE 11 13 6 7 1028.1 1028.0 0.0
27/10:30pm 9.7 7.8 8.9 95 0.4 NE 9 11 5 6 1028.3 1028.2 0.0
27/10:00pm 10.3 8.8 9.1 92 0.6 NE 7 9 4 5 1028.6 1028.5 0.0
27/09:30pm 11.8 9.4 10.0 89 0.9 NE 13 17 7 9 1028.4 1028.3 0.0
27/09:00pm 12.2 9.3 9.8 85 1.2 ENE 15 20 8 11 1028.4 1028.3 0.0
27/08:30pm 12.8 9.7 10.3 85 1.3 ENE 17 22 9 12 1028.0 1027.9 0.0
27/08:00pm 13.3 10.1 11.2 87 1.1 ENE 19 32 10 17 1027.9 1027.8 0.0
27/07:30pm 13.3 11.0 11.7 90 0.9 ENE 15 20 8 11 1027.9 1027.8 0.0
27/07:00pm 13.7 10.9 11.2 85 1.3 ENE 17 26 9 14 1027.8 1027.7 0.0
27/06:30pm 14.2 10.8 11.4 83 1.5 E 20 30 11 16 1027.6 1027.5 0.0
27/06:00pm 14.6 10.9 11.4 81 1.7 E 22 35 12 19 1027.4 1027.3 0.0
27/05:30pm 15.0 11.5 11.0 77 2.1 E 20 30 11 16 1027.3 1027.2 0.0
27/05:00pm 15.5 11.2 10.7 73 2.5 E 24 35 13 19 1027.1 1027.0 0.0
27/04:30pm 16.2 12.4 11.2 72 2.7 ESE 22 37 12 20 1027.0 1026.9 0.0
27/04:00pm 16.6 12.0 11.1 70 2.9 ESE 26 37 14 20 1027.1 1027.0 0.0
27/03:30pm 17.0 11.8 10.4 65 3.5 ESE 28 39 15 21 1026.9 1026.8 0.0
27/03:00pm 17.2 12.5 10.6 65 3.5 ESE 26 37 14 20 1026.8 1026.7 0.0
27/02:30pm 18.4 13.7 10.8 61 4.1 ESE 26 35 14 19 1027.0 1026.9 0.0
27/02:00pm 17.2 13.2 10.6 65 3.5 ESE 22 30 12 16 1026.9 1026.8 0.0
27/01:30pm 17.3 13.9 11.1 67 3.3 SE 20 30 11 16 1027.1 1027.0 0.0
27/01:00pm 16.9 13.7 11.2 69 3.1 ESE 19 28 10 15 1027.2 1027.1 0.0
27/12:30pm 16.7 13.1 9.9 64 3.6 SE 19 30 10 16 1027.5 1027.4 0.0
27/12:00pm 16.1 12.6 10.2 68 3.1 SSE 19 24 10 13 1028.0 1027.9 0.0
27/11:30am 17.3 14.6 10.2 63 3.8 SSE 15 24 8 13 1028.6 1028.5 0.0
27/11:00am 16.7 13.7 10.5 67 3.3 SSE 17 20 9 11 1029.0 1028.9 0.0
27/10:30am 17.4 16.5 9.1 58 4.3 NE 4 9 2 5 1029.4 1029.3 0.0
27/10:00am 14.6 13.2 9.0 69 2.8 NNE 6 11 3 6 1029.6 1029.5 0.0
27/09:30am 13.2 11.4 9.5 78 1.9 NNE 9 15 5 8 1029.7 1029.6 0.0
27/09:00am 10.6 9.4 9.4 92 0.6 ENE 6 9 3 5 1029.8 1029.7 0.2
27/08:30am 9.4 8.1 9.3 99 0.0 ENE 6 7 3 4 1029.7 1029.6 0.2
27/08:00am 8.0 6.4 7.9 99 0.0 ENE 6 9 3 5 1029.5 1029.4 0.2
27/07:30am 6.0 3.7 5.9 99 0.0 ENE 7 9 4 5 1029.3 1029.2 0.2
27/07:00am 4.7 2.2 4.6 99 0.0 NE 7 9 4 5 1029.1 1029.0 0.2
27/06:30am 5.0 2.5 4.9 99 0.0 ENE 7 11 4 6 1028.9 1028.8 0.2
27/06:00am 4.8 2.3 4.7 99 0.0 NE 7 9 4 5 1028.8 1028.7 0.2
27/05:30am 6.3 3.3 6.2 99 0.0 NNE 11 13 6 7 1028.7 1028.6 0.2
27/05:00am 6.3 3.3 6.2 99 0.0 NNE 11 13 6 7 1028.7 1028.6 0.2
27/04:30am 6.3 3.0 6.2 99 0.0 NE 13 17 7 9 1028.5 1028.4 0.0
27/04:00am 5.9 2.9 5.8 99 0.0 NNE 11 13 6 7 1028.5 1028.4 0.0
27/03:30am 5.1 2.3 5.0 99 0.0 NNE 9 11 5 6 1028.4 1028.3 0.0
27/03:00am 5.3 2.9 5.2 99 0.0 NNE 7 9 4 5 1028.3 1028.2 0.0
27/02:30am 6.7 4.6 6.6 99 0.0 NE 7 7 4 4 1028.5 1028.4 0.0
27/02:00am 7.4 5.4 7.3 99 0.0 NE 7 7 4 4 1028.6 1028.5 0.0
27/01:30am 7.6 5.7 7.5 99 0.0 NNE 7 7 4 4 1028.6 1028.5 0.0
27/01:00am 7.8 5.9 7.7 99 0.0 NNE 7 9 4 5 1028.7 1028.6 0.0
27/12:30am 7.8 5.9 7.7 99 0.0 NNE 7 7 4 4 1028.8 1028.7 0.0
27/12:00am 8.3 6.2 8.2 99 0.0 NE 9 9 5 5 1028.9 1028.8 0.0
 
Date/Time
WST
Temp
°C
App
Temp
°C
Dew
Point
Rel
Hum
%
Delta-T
°C
Wind Press
QNH
hPa
Press
MSL
hPa
Rain
since 9 am
mm
Dir
 
Spd
km/h
Gust
km/h
Spd
kts
Gust
kts
26/11:30pm 8.3 6.1 8.0 98 0.1 NNE 9 11 5 6 1029.0 1028.9 0.0
26/11:00pm 8.8 6.7 8.2 96 0.3 NNE 9 11 5 6 1028.9 1028.8 0.0
26/10:30pm 8.9 6.8 8.3 96 0.3 NNE 9 11 5 6 1028.9 1028.8 0.0
26/10:00pm 9.3 7.3 8.7 96 0.3 NNE 9 11 5 6 1029.0 1028.9 0.0
26/09:30pm 9.2 7.5 8.4 95 0.4 NNE 7 9 4 5 1029.2 1029.1 0.0
26/09:00pm 9.6 8.0 8.7 94 0.4 NNE 7 9 4 5 1029.1 1029.0 0.0
26/08:30pm 9.8 7.7 8.4 91 0.7 NE 9 9 5 5 1028.9 1028.8 0.0
26/08:00pm 10.6 9.0 8.7 88 0.9 ENE 7 7 4 4 1028.7 1028.6 0.0
26/07:30pm 11.3 9.4 8.9 85 1.2 ENE 9 11 5 6 1028.5 1028.4 0.0
26/07:00pm 12.0 10.5 9.0 82 1.5 ENE 7 9 4 5 1028.4 1028.3 0.0
26/06:30pm 13.1 10.8 9.0 76 2.1 E 11 20 6 11 1028.2 1028.1 0.0
26/06:00pm 13.1 10.3 8.6 74 2.2 ESE 13 20 7 11 1027.8 1027.7 0.0
26/05:30pm 13.5 11.0 9.7 78 2.0 ESE 13 20 7 11 1027.7 1027.6 0.0
26/05:00pm 14.2 11.5 10.2 77 2.1 ESE 15 24 8 13 1027.6 1027.5 0.0
26/04:30pm 14.8 11.7 10.2 74 2.4 SE 17 26 9 14 1027.5 1027.4 0.0
26/04:00pm 15.1 11.6 10.1 72 2.6 SE 19 28 10 15 1027.6 1027.5 0.0
26/03:30pm 15.5 11.6 9.6 68 3.1 SE 20 30 11 16 1027.5 1027.4 0.0
26/03:00pm 15.8 11.5 9.5 66 3.2 SE 22 30 12 16 1027.4 1027.3 0.0
26/02:30pm 16.3 12.4 9.5 64 3.5 SE 20 30 11 16 1027.3 1027.2 0.0
26/02:00pm 16.2 11.9 9.4 64 3.5 SE 22 32 12 17 1027.3 1027.2 0.0
26/01:30pm 16.3 12.3 9.0 62 3.8 SE 20 26 11 14 1027.4 1027.3 0.0
26/01:00pm 16.7 12.8 8.7 59 4.1 SE 19 26 10 14 1027.6 1027.5 0.0
26/12:30pm 16.4 12.5 9.3 63 3.7 SSE 20 28 11 15 1027.8 1027.7 0.0
26/12:00pm 17.1 13.9 8.3 56 4.5 SE 15 20 8 11 1028.2 1028.1 0.0
26/11:30am 15.4 12.4 7.9 61 3.8 SE 13 19 7 10 1028.6 1028.5 0.0
26/11:00am 17.5 15.2 7.5 52 5.0 ENE 9 17 5 9 1028.9 1028.8 0.0
26/10:30am 17.6 15.5 6.5 48 5.5 N 7 13 4 7 1029.0 1028.9 0.0
26/10:00am 17.9 15.9 8.7 55 4.7 NE 9 17 5 9 1029.2 1029.1 0.0
26/09:30am 17.4 15.6 9.6 60 4.1 NNE 9 13 5 7 1029.3 1029.2 0.0
26/09:00am 16.1 14.5 10.2 68 3.1 NNE 9 13 5 7 1029.5 1029.4 0.2
26/08:30am 14.6 12.9 10.0 74 2.4 NNE 9 11 5 6 1029.5 1029.4 0.2
26/08:00am 13.0 11.9 9.8 81 1.6 NNE 6 9 3 5 1029.5 1029.4 0.2
26/07:30am 11.1 9.2 9.2 88 0.9 N 9 11 5 6 1029.1 1029.0 0.2
26/07:00am 9.2 7.7 8.4 95 0.4 NNE 6 9 3 5 1028.8 1028.7 0.2
26/06:30am 8.8 7.2 8.0 95 0.4 N 6 9 3 5 1028.6 1028.5 0.2
26/06:00am 9.5 7.9 8.7 95 0.4 N 7 13 4 7 1028.5 1028.4 0.2
26/05:30am 9.6 7.6 8.8 95 0.4 N 9 13 5 7 1028.4 1028.3 0.2
26/05:00am 9.4 8.5 9.1 98 0.1 N 4 6 2 3 1028.3 1028.2 0.2
26/04:30am 9.4 7.6 9.3 99 0.0 N 9 13 5 7 1028.2 1028.1 0.2
26/04:00am 8.0 6.4 7.9 99 0.0 N 6 9 3 5 1027.9 1027.8 0.2
26/03:30am 8.3 6.7 8.2 99 0.0 N 6 7 3 4 1027.8 1027.7 0.2
26/03:00am 8.5 6.9 8.2 98 0.1 NNE 6 6 3 3 1027.8 1027.7 0.2
26/02:30am 9.2 7.9 9.1 99 0.0 N 6 6 3 3 1027.8 1027.7 0.2
26/02:00am 9.3 8.3 9.0 98 0.1 NNE 4 6 2 3 1027.9 1027.8 0.2
26/01:30am 9.6 8.7 9.3 98 0.1 N 4 6 2 3 1027.8 1027.7 0.2
26/01:00am 9.7 8.7 8.9 95 0.4 N 4 6 2 3 1027.9 1027.8 0.2
26/12:30am 8.1 6.3 7.3 95 0.4 N 6 6 3 3 1027.9 1027.8 0.2
26/12:00am 9.0 8.1 7.9 93 0.5 NNE 2 4 1 2 1028.0 1027.9 0.2
 
Date/Time
WST
Temp
°C
App
Temp
°C
Dew
Point
Rel
Hum
%
Delta-T
°C
Wind Press
QNH
hPa
Press
MSL
hPa
Rain
since 9 am
mm
Dir
 
Spd
km/h
Gust
km/h
Spd
kts
Gust
kts
25/11:30pm 9.1 7.5 8.0 93 0.5 NE 6 7 3 4 1028.0 1027.9 0.2
25/11:00pm 9.3 7.5 8.1 92 0.6 NE 7 9 4 5 1028.2 1028.1 0.2
25/10:30pm 10.1 8.4 8.4 89 0.8 NE 7 9 4 5 1028.3 1028.2 0.2
25/10:00pm 10.6 8.9 8.5 87 1.0 NE 7 9 4 5 1028.6 1028.5 0.2
25/09:30pm 10.8 9.4 8.9 88 0.9 NE 6 7 3 4 1028.7 1028.6 0.2
25/09:00pm 10.7 9.2 9.0 89 0.8 NE 7 7 4 4 1028.6 1028.5 0.2
25/08:30pm 10.9 9.5 9.0 88 0.9 NE 6 7 3 4 1028.4 1028.3 0.2
25/08:00pm 11.1 9.8 9.2 88 0.9 NE 6 7 3 4 1028.2 1028.1 0.2
25/07:30pm 10.6 8.9 8.5 87 1.0 ENE 7 9 4 5 1028.0 1027.9 0.2
25/07:00pm 11.8 10.2 8.8 82 1.5 NE 7 9 4 5 1028.0 1027.9 0.2
25/06:30pm 12.9 10.9 8.8 76 2.1 ENE 9 13 5 7 1027.7 1027.6 0.2
25/06:00pm 13.5 11.9 8.6 72 2.4 ENE 7 13 4 7 1027.4 1027.3 0.2
25/05:30pm 13.8 11.8 8.6 71 2.6 E 9 13 5 7 1027.2 1027.1 0.2
25/05:00pm 14.1 12.1 8.7 70 2.7 ESE 9 15 5 8 1027.0 1026.9 0.2
25/04:30pm 14.3 12.0 8.9 70 2.7 ESE 11 15 6 8 1027.0 1026.9 0.2
25/04:00pm 14.6 11.6 9.2 70 2.7 ESE 15 19 8 10 1027.1 1027.0 0.2
25/03:30pm 15.4 12.8 9.3 67 3.1 SE 13 19 7 10 1027.1 1027.0 0.2
25/03:00pm 15.1 12.2 9.5 69 2.9 SSE 15 22 8 12 1027.0 1026.9 0.2
25/02:30pm 15.6 12.2 9.1 65 3.3 SE 17 22 9 12 1027.0 1026.9 0.2
25/02:00pm 16.0 13.2 10.1 68 3.1 SE 15 20 8 11 1027.0 1026.9 0.2
25/01:30pm 15.7 13.0 10.2 70 2.9 SSE 15 20 8 11 1027.0 1026.9 0.2
25/01:00pm 15.5 13.0 9.6 68 3.0 SSE 13 19 7 10 1027.2 1027.1 0.2
25/12:30pm 15.6 13.2 8.6 63 3.6 SE 11 17 6 9 1027.5 1027.4 0.2
25/12:00pm 15.1 13.0 8.3 64 3.4 SSE 9 15 5 8 1027.9 1027.8 0.2
25/11:30am 15.8 14.4 9.5 66 3.3 E 7 13 4 7 1028.2 1028.1 0.2
25/11:00am 15.9 14.4 10.7 71 2.7 E 9 17 5 9 1028.6 1028.5 0.2
25/10:30am 16.7 15.9 11.6 72 2.8 NNE 7 9 4 5 1028.8 1028.7 0.0
25/10:00am 15.6 14.8 11.8 78 2.0 NNE 7 11 4 6 1029.0 1028.9 0.0
25/09:30am 15.3 14.6 11.9 80 1.8 NNE 7 15 4 8 1029.1 1029.0 0.0
25/09:00am 14.4 14.3 13.4 94 0.6 NNE 6 7 3 4 1029.2 1029.1 2.4
25/08:30am 13.4 13.3 13.2 99 0.1 NNE 6 7 3 4 1029.1 1029.0 2.4

Other Formats:

Comma delimited format used in spreadsheet applications
http://www.bom.gov.au/fwo/IDW60801/IDW60801.95635.axf

JavaScript Object Notation format (JSON) in row-major order
http://www.bom.gov.au/fwo/IDW60801/IDW60801.95635.json